Time;durP1;ratioP1;P1;durP2;ratioP2;P2;SDS_P1;SDS_P2;PMS_P1;PMS_P2;Temp;Humidity;BMP_temperature;BMP_pressure;BME280_temperature;BME280_humidity;BME280_pressure;Samples;Min_cycle;Max_cycle;Signal;HPM_P1;HPM_P2
2021/04/30 00:01:43;;;;;;;17.53;15.03;;;10.90;87.00;;;;;;5053453;28;20402;-83
2021/04/30 00:04:09;;;;;;;19.57;15.40;;;11.00;87.70;;;;;;5054334;28;20256;-83
2021/04/30 00:06:35;;;;;;;16.33;14.73;;;10.90;87.90;;;;;;5053855;28;20558;-82
2021/04/30 00:09:00;;;;;;;16.17;14.40;;;10.90;88.60;;;;;;5053555;28;20188;-82
2021/04/30 00:11:26;;;;;;;17.07;15.43;;;11.00;87.90;;;;;;5054299;28;20199;-82
2021/04/30 00:13:52;;;;;;;16.60;15.00;;;10.90;87.90;;;;;;5053053;28;20213;-82
2021/04/30 00:16:18;;;;;;;17.13;15.33;;;11.00;88.30;;;;;;5053656;28;20642;-82
2021/04/30 00:18:43;;;;;;;18.07;16.10;;;11.00;89.00;;;;;;5053122;28;20618;-82
2021/04/30 00:21:09;;;;;;;17.73;15.27;;;10.90;88.60;;;;;;5053886;28;20544;-82
2021/04/30 00:23:35;;;;;;;16.00;14.50;;;11.00;88.60;;;;;;5053792;28;20273;-82
2021/04/30 00:26:08;;;;;;;17.13;14.80;;;11.00;88.50;;;;;;5052721;28;20512;-82
2021/04/30 00:28:34;;;;;;;16.30;14.60;;;11.10;88.90;;;;;;5036136;28;20164;-82
2021/04/30 00:31:01;;;;;;;16.33;14.77;;;11.00;88.50;;;;;;5053032;28;20544;-83
2021/04/30 00:33:28;;;;;;;19.37;15.27;;;11.10;88.80;;;;;;5052813;28;20444;-83
2021/04/30 00:35:55;;;;;;;17.43;15.60;;;11.10;89.10;;;;;;5052939;28;20400;-83
2021/04/30 00:38:21;;;;;;;17.00;15.20;;;11.10;89.00;;;;;;5053500;28;20419;-83
2021/04/30 00:40:47;;;;;;;19.37;16.27;;;11.10;88.80;;;;;;5052310;28;20549;-83
2021/04/30 00:43:13;;;;;;;18.00;16.13;;;11.10;89.00;;;;;;5053570;28;20412;-83
2021/04/30 00:45:39;;;;;;;20.43;15.00;;;11.10;89.20;;;;;;5053670;28;20412;-83
2021/04/30 00:48:08;;;;;;;16.90;14.97;;;11.10;89.60;;;;;;5053106;28;20413;-83
2021/04/30 00:50:34;;;;;;;18.20;16.40;;;11.20;89.80;;;;;;5053484;28;20245;-82
2021/04/30 00:53:00;;;;;;;18.60;16.43;;;11.10;89.60;;;;;;5052527;28;20526;-83
2021/04/30 00:55:26;;;;;;;19.53;17.53;;;11.10;89.70;;;;;;5053294;28;20417;-83
2021/04/30 00:57:57;;;;;;;18.60;16.30;;;11.10;89.50;;;;;;5052367;28;20183;-83
2021/04/30 01:00:25;;;;;;;19.87;17.37;;;11.10;89.80;;;;;;5053331;28;20174;-83
2021/04/30 01:02:52;;;;;;;19.80;17.50;;;11.10;90.20;;;;;;5052146;28;20855;-82
2021/04/30 01:05:19;;;;;;;21.13;16.60;;;11.10;90.20;;;;;;5052990;28;20424;-83
2021/04/30 01:07:45;;;;;;;22.47;17.70;;;11.10;90.10;;;;;;5052343;28;20918;-82
2021/04/30 01:10:11;;;;;;;22.40;18.37;;;11.00;90.20;;;;;;5052713;28;20433;-82
2021/04/30 01:12:37;;;;;;;20.23;17.90;;;11.00;90.10;;;;;;5035181;28;20500;-82
2021/04/30 01:15:04;;;;;;;22.17;19.23;;;11.00;90.40;;;;;;5051980;28;20412;-83
2021/04/30 01:17:29;;;;;;;22.00;18.60;;;11.00;90.50;;;;;;5052285;28;20423;-83
2021/04/30 01:19:56;;;;;;;22.27;19.13;;;11.00;90.40;;;;;;5052122;28;20397;-83
2021/04/30 01:22:43;;;;;;;21.47;19.30;;;11.00;90.40;;;;;;5052882;28;20255;-83
2021/04/30 01:25:11;;;;;;;22.27;19.50;;;11.00;90.50;;;;;;5070307;28;20566;-83
2021/04/30 01:27:38;;;;;;;23.23;19.00;;;11.00;90.50;;;;;;5072754;28;20545;-83
2021/04/30 01:30:07;;;;;;;22.07;19.03;;;11.00;90.70;;;;;;5071936;28;20646;-83
2021/04/30 01:32:32;;;;;;;23.90;19.97;;;11.00;90.60;;;;;;5071343;28;20455;-83
2021/04/30 01:34:58;;;;;;;24.87;21.47;;;11.00;90.60;;;;;;5071879;28;20911;-83
2021/04/30 01:37:25;;;;;;;26.13;22.07;;;10.90;91.00;;;;;;5071413;28;20213;-83
2021/04/30 01:39:52;;;;;;;26.93;22.10;;;10.90;90.90;;;;;;5071674;28;20426;-83
2021/04/30 01:42:17;;;;;;;29.07;22.40;;;10.90;91.10;;;;;;5072516;28;20412;-83
2021/04/30 01:44:43;;;;;;;30.93;23.00;;;10.80;91.10;;;;;;5071995;28;20427;-83
2021/04/30 01:47:09;;;;;;;28.50;23.87;;;10.80;91.00;;;;;;5072123;28;20199;-82
2021/04/30 01:49:34;;;;;;;26.93;22.00;;;10.90;91.10;;;;;;5072285;28;20178;-83
2021/04/30 01:52:00;;;;;;;26.80;20.73;;;10.90;91.10;;;;;;5069371;28;20203;-83
2021/04/30 01:54:26;;;;;;;27.67;22.10;;;10.90;91.10;;;;;;5072353;28;20221;-83
2021/04/30 01:56:52;;;;;;;27.20;20.83;;;10.90;91.10;;;;;;5071486;28;20170;-83
2021/04/30 01:59:18;;;;;;;25.23;21.20;;;10.80;91.20;;;;;;5070909;28;20818;-82
2021/04/30 02:01:44;;;;;;;29.67;23.40;;;10.80;91.30;;;;;;5072025;28;20173;-83
2021/04/30 02:04:11;;;;;;;27.70;22.17;;;10.90;91.40;;;;;;5071904;28;20409;-83
2021/04/30 02:06:41;;;;;;;30.47;23.50;;;10.90;91.70;;;;;;5071960;28;20407;-82
2021/04/30 02:09:08;;;;;;;30.63;23.80;;;10.90;91.30;;;;;;5071437;28;20434;-82
2021/04/30 02:11:35;;;;;;;28.43;23.93;;;11.00;91.20;;;;;;5072219;28;20748;-82
2021/04/30 02:14:02;;;;;;;31.27;23.80;;;10.90;91.30;;;;;;5053230;28;20556;-83
2021/04/30 02:16:28;;;;;;;28.40;23.80;;;10.90;91.50;;;;;;5072056;28;20415;-82
2021/04/30 02:18:53;;;;;;;29.00;24.73;;;10.90;91.40;;;;;;5071311;28;20492;-83
2021/04/30 02:21:19;;;;;;;27.80;24.43;;;10.90;91.40;;;;;;5072198;28;20259;-83
2021/04/30 02:23:45;;;;;;;28.50;23.10;;;11.00;91.60;;;;;;5070121;28;20224;-82
2021/04/30 02:26:11;;;;;;;30.17;25.07;;;10.90;91.50;;;;;;5071281;28;20692;-83
2021/04/30 02:28:36;;;;;;;35.00;25.90;;;11.00;91.60;;;;;;5072076;28;20632;-82
2021/04/30 02:31:02;;;;;;;30.30;24.00;;;11.00;91.80;;;;;;5071253;28;20591;-82
2021/04/30 02:33:28;;;;;;;32.37;25.77;;;11.00;92.00;;;;;;5071336;28;20205;-82
2021/04/30 02:35:54;;;;;;;34.23;25.83;;;10.90;91.90;;;;;;5070905;28;20613;-82
2021/04/30 02:38:20;;;;;;;37.93;26.20;;;10.90;91.90;;;;;;5071949;28;20884;-82
2021/04/30 02:40:48;;;;;;;35.17;25.07;;;11.00;92.10;;;;;;5070513;28;20274;-83
2021/04/30 02:43:19;;;;;;;33.13;24.53;;;10.90;92.20;;;;;;5070618;28;20411;-82
2021/04/30 02:45:51;;;;;;;36.93;25.07;;;10.90;92.30;;;;;;5070032;28;20424;-82
2021/04/30 02:48:24;;;;;;;31.47;24.70;;;10.90;92.70;;;;;;5072053;28;20865;-83
2021/04/30 02:50:50;;;;;;;35.53;25.70;;;10.80;92.30;;;;;;5071186;28;20398;-82
2021/04/30 02:53:16;;;;;;;36.77;25.77;;;10.90;92.40;;;;;;5071703;28;20451;-83
2021/04/30 02:55:41;;;;;;;37.67;25.60;;;10.90;92.50;;;;;;5072862;28;20419;-83
2021/04/30 02:58:07;;;;;;;34.67;23.37;;;10.80;92.50;;;;;;5074846;28;20173;-83
2021/04/30 03:00:33;;;;;;;29.47;24.50;;;10.90;92.70;;;;;;5075438;28;20183;-83
2021/04/30 03:03:00;;;;;;;35.87;24.80;;;10.80;92.80;;;;;;5074456;28;20682;-91
2021/04/30 03:05:26;;;;;;;36.60;24.20;;;10.90;92.70;;;;;;5074743;28;20189;-88
2021/04/30 03:07:53;;;;;;;33.53;23.77;;;10.80;92.90;;;;;;5074334;28;20409;-83
2021/04/30 03:10:19;;;;;;;33.77;22.77;;;10.70;92.90;;;;;;5075375;28;20490;-83
2021/04/30 03:12:46;;;;;;;30.40;24.20;;;10.70;92.90;;;;;;5074975;28;20456;-83
2021/04/30 03:15:14;;;;;;;36.27;22.90;;;10.70;93.00;;;;;;5074615;28;20412;-83
2021/04/30 03:17:41;;;;;;;29.87;23.40;;;10.70;93.20;;;;;;5074342;28;20412;-83
2021/04/30 03:20:08;;;;;;;31.90;23.27;;;10.70;93.10;;;;;;5072804;28;21103;-83
2021/04/30 03:22:34;;;;;;;31.47;22.93;;;10.80;93.30;;;;;;5073584;28;20415;-83
2021/04/30 03:25:00;;;;;;;32.60;23.43;;;10.70;93.40;;;;;;5055640;28;20456;-83
2021/04/30 03:27:27;;;;;;;32.33;23.90;;;10.80;93.50;;;;;;5054952;28;20660;-82
2021/04/30 03:29:54;;;;;;;37.13;23.23;;;10.80;93.40;;;;;;5054193;28;20413;-84
2021/04/30 03:32:21;;;;;;;31.40;22.90;;;10.80;93.60;;;;;;5055097;28;20413;-83
2021/04/30 03:34:46;;;;;;;35.87;24.50;;;10.70;93.70;;;;;;5054941;28;20413;-83
2021/04/30 03:37:12;;;;;;;31.87;23.73;;;10.70;93.60;;;;;;5054119;28;20410;-83
2021/04/30 03:39:38;;;;;;;31.87;23.40;;;10.70;93.50;;;;;;5054555;28;20183;-84
2021/04/30 03:42:04;;;;;;;32.80;23.20;;;10.70;93.50;;;;;;5035679;28;20183;-83
2021/04/30 03:44:30;;;;;;;31.53;23.17;;;10.70;93.70;;;;;;5054212;28;20262;-84
2021/04/30 03:46:55;;;;;;;31.63;23.50;;;10.70;93.80;;;;;;5053874;28;20503;-83
2021/04/30 03:49:21;;;;;;;34.53;22.70;;;10.70;94.00;;;;;;5054782;28;20189;-83
2021/04/30 03:51:47;;;;;;;36.03;23.23;;;10.70;94.00;;;;;;5054573;28;20184;-84
2021/04/30 03:54:13;;;;;;;37.10;26.77;;;10.70;93.90;;;;;;5053460;28;20222;-83
2021/04/30 03:56:38;;;;;;;32.67;24.10;;;10.80;94.00;;;;;;5054362;28;20259;-84
2021/04/30 03:59:04;;;;;;;37.70;27.93;;;10.80;94.10;;;;;;5053347;28;20673;-83
2021/04/30 04:01:30;;;;;;;38.67;26.13;;;10.80;93.90;;;;;;5054402;28;20627;-84
2021/04/30 04:03:55;;;;;;;34.13;25.70;;;10.80;94.00;;;;;;5053421;28;20179;-83
2021/04/30 04:06:21;;;;;;;37.83;23.40;;;10.80;93.90;;;;;;5053882;28;20174;-84
2021/04/30 04:08:47;;;;;;;41.47;25.07;;;10.90;93.80;;;;;;5035995;28;20176;-84
2021/04/30 04:11:13;;;;;;;37.97;24.17;;;10.90;94.00;;;;;;5053288;28;20174;-84
2021/04/30 04:13:38;;;;;;;33.20;24.20;;;10.90;93.70;;;;;;5054091;28;20263;-84
2021/04/30 04:16:05;;;;;;;35.33;26.13;;;10.90;93.80;;;;;;5053480;28;20917;-84
2021/04/30 04:18:31;;;;;;;35.80;24.70;;;11.00;93.80;;;;;;5054182;28;20185;-84
2021/04/30 04:20:57;;;;;;;38.47;23.90;;;11.00;93.70;;;;;;5053254;28;20401;-84
2021/04/30 04:23:23;;;;;;;37.93;25.87;;;10.90;93.70;;;;;;5053528;28;20506;-84
2021/04/30 04:25:48;;;;;;;31.30;23.53;;;10.90;93.80;;;;;;5053766;28;20426;-84
2021/04/30 04:28:14;;;;;;;34.73;25.00;;;11.00;93.90;;;;;;5053590;28;20669;-84
2021/04/30 04:30:41;;;;;;;37.23;25.67;;;11.00;94.00;;;;;;5053686;28;20252;-84
2021/04/30 04:33:07;;;;;;;44.83;26.97;;;11.00;94.00;;;;;;5052930;28;20457;-83
2021/04/30 04:35:32;;;;;;;38.27;26.77;;;11.00;94.00;;;;;;5053798;28;20418;-83
2021/04/30 04:37:58;;;;;;;39.20;26.10;;;11.00;94.10;;;;;;5052934;28;20255;-84
2021/04/30 04:40:25;;;;;;;40.83;25.97;;;11.00;94.10;;;;;;5035661;28;20447;-83
2021/04/30 04:42:52;;;;;;;43.57;26.00;;;11.00;94.20;;;;;;5053115;28;20181;-83
2021/04/30 04:45:19;;;;;;;43.00;26.57;;;10.90;94.30;;;;;;5035172;28;20519;-83
2021/04/30 04:47:45;;;;;;;43.93;27.90;;;10.90;94.40;;;;;;5053726;28;20796;-83
2021/04/30 04:50:12;;;;;;;39.17;26.73;;;10.90;94.70;;;;;;5052724;28;20421;-83
2021/04/30 04:52:38;;;;;;;45.87;28.60;;;10.90;94.70;;;;;;5053666;28;20294;-84
2021/04/30 04:55:05;;;;;;;41.93;27.10;;;10.90;94.70;;;;;;5034888;28;20409;-83
2021/04/30 04:57:31;;;;;;;37.20;25.67;;;10.80;94.70;;;;;;5053163;28;20409;-83
2021/04/30 04:59:57;;;;;;;47.50;26.33;;;10.80;94.80;;;;;;5052294;28;20520;-83
2021/04/30 05:02:22;;;;;;;37.97;26.43;;;10.80;94.80;;;;;;5053054;28;20257;-84
2021/04/30 05:04:48;;;;;;;48.80;27.07;;;10.90;94.90;;;;;;5034855;28;20194;-83
2021/04/30 05:07:14;;;;;;;39.70;27.30;;;10.90;94.90;;;;;;5052381;28;20172;-83
2021/04/30 05:09:40;;;;;;;44.23;29.43;;;10.90;95.10;;;;;;5053162;28;20239;-83
2021/04/30 05:12:07;;;;;;;44.97;26.90;;;10.70;95.10;;;;;;5051308;28;20208;-83
2021/04/30 05:14:33;;;;;;;38.47;25.63;;;10.80;95.10;;;;;;5052515;28;20492;-83
2021/04/30 05:16:58;;;;;;;53.93;27.60;;;10.80;95.10;;;;;;5051869;28;20894;-83
2021/04/30 05:19:24;;;;;;;38.27;26.57;;;10.80;95.10;;;;;;5052874;28;20174;-83
2021/04/30 05:21:50;;;;;;;35.03;25.60;;;10.80;95.10;;;;;;5053251;28;20176;-83
2021/04/30 05:24:16;;;;;;;39.47;26.20;;;10.80;95.10;;;;;;5063821;28;20348;-83
2021/04/30 05:26:42;;;;;;;41.10;27.00;;;10.70;95.10;;;;;;5072813;28;20185;-83
2021/04/30 05:29:08;;;;;;;41.00;25.50;;;10.70;95.40;;;;;;5072725;28;20432;-83
2021/04/30 05:31:35;;;;;;;40.00;25.30;;;10.70;95.50;;;;;;5073000;28;20210;-83
2021/04/30 05:34:02;;;;;;;42.30;24.53;;;10.70;95.50;;;;;;5072434;28;20459;-83
2021/04/30 05:36:28;;;;;;;41.40;26.00;;;10.80;95.50;;;;;;5073090;28;20453;-83
2021/04/30 05:38:53;;;;;;;40.57;26.20;;;10.80;95.40;;;;;;5072918;28;20404;-83
2021/04/30 05:41:19;;;;;;;39.50;24.83;;;10.80;95.40;;;;;;5072529;28;20497;-83
2021/04/30 05:43:45;;;;;;;46.10;25.03;;;10.80;95.60;;;;;;5072432;28;20637;-83
2021/04/30 05:46:10;;;;;;;37.30;24.80;;;10.80;95.50;;;;;;5071663;28;20222;-83
2021/04/30 05:48:36;;;;;;;42.50;25.33;;;10.90;95.50;;;;;;5072794;28;20173;-83
2021/04/30 05:51:02;;;;;;;39.87;25.90;;;10.90;95.30;;;;;;5071167;28;20169;-83
2021/04/30 05:53:28;;;;;;;43.93;25.27;;;10.90;95.40;;;;;;5072214;28;20209;-83
2021/04/30 05:55:54;;;;;;;46.47;25.87;;;10.90;95.40;;;;;;5072424;28;20407;-83
2021/04/30 05:58:19;;;;;;;42.40;25.83;;;10.90;95.50;;;;;;5070705;28;21255;-83
2021/04/30 06:00:45;;;;;;;40.60;24.77;;;10.90;95.40;;;;;;5071841;28;20661;-83
2021/04/30 06:03:11;;;;;;;44.67;24.37;;;10.90;95.50;;;;;;5071245;28;20637;-83
2021/04/30 06:05:36;;;;;;;40.70;26.03;;;10.90;95.50;;;;;;5071784;28;20179;-83
2021/04/30 06:08:02;;;;;;;41.50;24.40;;;11.00;95.50;;;;;;5071059;28;20188;-84
2021/04/30 06:10:28;;;;;;;42.17;26.60;;;10.90;95.40;;;;;;5071812;28;20175;-84
2021/04/30 06:12:54;;;;;;;43.00;24.23;;;10.90;95.40;;;;;;5070659;28;20487;-84
2021/04/30 06:15:20;;;;;;;36.27;24.87;;;10.90;95.70;;;;;;5069431;28;20236;-85
2021/04/30 06:17:46;;;;;;;38.20;26.37;;;10.90;95.80;;;;;;5070437;28;20463;-86
2021/04/30 06:20:12;;;;;;;38.53;24.53;;;10.90;95.80;;;;;;5072035;28;20413;-83
2021/04/30 06:22:38;;;;;;;37.97;24.40;;;10.90;95.70;;;;;;5072600;28;20507;-91
2021/04/30 06:25:04;;;;;;;41.77;27.77;;;10.90;96.20;;;;;;5071156;28;20464;-94
2021/04/30 06:27:30;;;;;;;43.37;26.50;;;10.90;95.90;;;;;;5072414;28;20647;-94
2021/04/30 06:29:56;;;;;;;40.00;24.80;;;10.90;95.90;;;;;;5073125;28;20499;-93
2021/04/30 06:32:22;;;;;;;37.77;25.63;;;10.90;96.00;;;;;;5076403;28;20265;-93
2021/04/30 06:34:47;;;;;;;45.00;26.63;;;10.90;96.10;;;;;;5077130;28;20175;-93
2021/04/30 06:37:13;;;;;;;37.80;25.77;;;10.90;96.20;;;;;;5089125;28;20172;-93
2021/04/30 06:39:39;;;;;;;43.17;27.07;;;10.80;96.20;;;;;;5097535;28;20640;-94
2021/04/30 06:42:06;;;;;;;42.00;25.43;;;10.80;96.10;;;;;;5096188;28;20411;-93
2021/04/30 06:44:32;;;;;;;42.53;27.03;;;10.70;96.40;;;;;;5081732;28;20186;-96
2021/04/30 06:46:59;;;;;;;50.00;27.30;;;10.80;96.60;;;;;;5077510;28;20447;-96
2021/04/30 06:49:25;;;;;;;42.57;26.53;;;10.80;96.50;;;;;;5077183;28;20418;-92
2021/04/30 06:51:51;;;;;;;42.47;26.73;;;10.80;96.50;;;;;;5074895;28;20430;-90
2021/04/30 06:54:17;;;;;;;37.80;24.10;;;10.80;96.60;;;;;;5075148;28;20211;-91
2021/04/30 06:56:43;;;;;;;39.83;25.03;;;10.80;96.50;;;;;;5075718;28;20419;-91
2021/04/30 06:59:09;;;;;;;40.87;26.60;;;10.90;96.50;;;;;;5074637;28;20422;-90
2021/04/30 07:02:04;;;;;;;45.27;24.97;;;10.90;96.60;;;;;;5076013;28;20998;-89
2021/04/30 07:04:30;;;;;;;43.80;26.60;;;10.90;96.60;;;;;;5073488;28;20612;-89
2021/04/30 07:06:56;;;;;;;41.33;26.10;;;10.80;96.40;;;;;;5073662;28;20451;-89
2021/04/30 07:09:21;;;;;;;44.00;28.43;;;10.80;96.70;;;;;;5073422;28;20260;-89
2021/04/30 07:11:47;;;;;;;41.63;26.70;;;10.80;96.60;;;;;;5075538;28;20628;-89
2021/04/30 07:14:13;;;;;;;47.90;27.50;;;10.90;97.20;;;;;;5073857;28;20229;-89
2021/04/30 07:16:38;;;;;;;41.80;26.30;;;10.90;96.70;;;;;;5073922;28;20182;-89
2021/04/30 07:19:04;;;;;;;45.78;28.27;;;10.90;96.60;;;;;;5073509;28;20452;-90
2021/04/30 07:21:30;;;;;;;45.07;27.40;;;10.80;97.00;;;;;;5075255;28;20212;-88
2021/04/30 07:23:55;;;;;;;50.13;28.83;;;10.90;96.50;;;;;;5065527;28;20216;-91
2021/04/30 07:26:21;;;;;;;46.57;26.70;;;11.00;96.40;;;;;;5053087;28;20240;-90
2021/04/30 07:28:47;;;;;;;41.80;25.73;;;11.00;96.10;;;;;;5052996;28;20186;-86
2021/04/30 07:31:13;;;;;;;41.53;27.83;;;10.80;97.70;;;;;;5052713;28;20169;-89
2021/04/30 07:33:46;;;;;;;42.23;28.30;;;11.20;98.10;;;;;;5053608;28;20212;-88
2021/04/30 07:36:12;;;;;;;45.43;28.20;;;11.70;97.30;;;;;;5052893;28;20641;-89
2021/04/30 07:38:38;;;;;;;39.20;24.50;;;11.90;95.40;;;;;;5053952;28;20759;-90
2021/04/30 07:41:03;;;;;;;37.07;24.00;;;12.20;95.80;;;;;;5053323;28;20406;-88
2021/04/30 07:43:29;;;;;;;40.83;26.43;;;12.70;95.00;;;;;;5052401;28;20188;-91
2021/04/30 07:45:55;;;;;;;32.87;25.07;;;13.00;93.90;;;;;;5053558;28;20185;-90
2021/04/30 07:48:21;;;;;;;35.27;24.73;;;13.30;92.70;;;;;;5052461;28;20185;-89
2021/04/30 07:50:46;;;;;;;35.80;25.40;;;13.40;91.80;;;;;;5054054;28;20562;-90
2021/04/30 07:53:12;;;;;;;36.30;24.33;;;13.50;91.20;;;;;;5052594;28;20670;-89
2021/04/30 07:55:38;;;;;;;33.67;24.00;;;13.70;91.60;;;;;;5053562;28;20610;-90
2021/04/30 07:58:04;;;;;;;36.67;24.97;;;13.90;91.10;;;;;;5052643;28;20197;-85
2021/04/30 08:00:30;;;;;;;34.40;24.87;;;14.20;90.70;;;;;;5053014;28;20223;-90
2021/04/30 08:02:56;;;;;;;32.93;23.70;;;14.30;89.40;;;;;;5052936;28;20417;-91
2021/04/30 08:05:23;;;;;;;34.63;23.70;;;14.50;89.90;;;;;;5051851;28;20422;-90
2021/04/30 08:07:49;;;;;;;37.60;26.53;;;14.70;88.50;;;;;;5053505;28;20221;-90
2021/04/30 08:10:15;;;;;;;36.70;25.00;;;14.80;87.30;;;;;;5053101;28;20402;-91
2021/04/30 08:12:41;;;;;;;38.57;26.73;;;15.00;86.70;;;;;;5053461;28;20451;-91
2021/04/30 08:15:08;;;;;;;34.40;24.17;;;15.10;85.30;;;;;;5051829;28;20188;-87
2021/04/30 08:17:34;;;;;;;35.57;25.17;;;15.20;84.60;;;;;;5053428;28;20898;-90
2021/04/30 08:20:02;;;;;;;37.93;23.73;;;15.10;82.50;;;;;;5053108;28;20446;-90
2021/04/30 08:22:27;;;;;;;33.87;24.40;;;14.80;84.70;;;;;;5052631;28;20422;-90
2021/04/30 08:24:54;;;;;;;33.83;23.37;;;15.00;84.50;;;;;;5032395;28;620352;-79
2021/04/30 08:27:20;;;;;;;33.67;23.70;;;15.10;83.80;;;;;;5053748;28;20211;-79
2021/04/30 08:29:50;;;;;;;31.17;22.93;;;15.00;82.70;;;;;;5053862;28;20423;-79
2021/04/30 08:32:16;;;;;;;32.73;22.53;;;14.70;83.20;;;;;;5053693;28;20402;-78
2021/04/30 08:34:42;;;;;;;35.20;24.13;;;14.40;83.90;;;;;;5054147;28;20425;-79
2021/04/30 08:37:08;;;;;;;32.50;24.60;;;14.20;85.00;;;;;;5053500;28;20432;-78
2021/04/30 08:39:34;;;;;;;38.57;24.87;;;13.90;86.00;;;;;;5053356;28;20500;-78
2021/04/30 08:42:00;;;;;;;36.77;24.57;;;13.70;87.30;;;;;;5053369;28;20900;-78
2021/04/30 08:44:26;;;;;;;36.30;25.80;;;13.50;87.70;;;;;;5051941;28;20190;-78
2021/04/30 08:46:52;;;;;;;35.40;22.93;;;13.20;89.00;;;;;;5052975;28;20477;-78
2021/04/30 08:49:19;;;;;;;36.80;23.33;;;13.10;89.90;;;;;;5051020;28;20424;-78
2021/04/30 08:51:45;;;;;;;36.47;24.03;;;12.90;90.40;;;;;;5051652;28;20436;-78
2021/04/30 08:54:11;;;;;;;41.97;25.37;;;12.90;91.00;;;;;;5050796;28;20465;-78
2021/04/30 08:56:44;;;;;;;35.10;22.93;;;12.50;91.10;;;;;;5051700;28;20180;-78
2021/04/30 08:59:11;;;;;;;33.93;22.83;;;12.20;91.70;;;;;;5052269;28;20176;-78
2021/04/30 09:01:37;;;;;;;36.33;22.70;;;12.10;92.30;;;;;;5052923;28;20461;-78
2021/04/30 09:04:07;;;;;;;34.20;21.67;;;12.00;92.70;;;;;;5053397;28;20426;-78
2021/04/30 09:06:38;;;;;;;33.97;23.17;;;12.00;93.40;;;;;;5053143;28;20496;-78
2021/04/30 09:09:18;;;;;;;37.23;23.30;;;12.10;93.60;;;;;;5053521;28;20826;-80
2021/04/30 09:11:46;;;;;;;39.87;24.03;;;11.90;93.30;;;;;;5053296;28;20506;-80
2021/04/30 09:14:21;;;;;;;32.00;22.47;;;11.90;93.70;;;;;;5052402;28;21054;-81
2021/04/30 09:17:12;;;;;;;36.57;23.50;;;11.90;93.70;;;;;;5053288;28;20938;-80
2021/04/30 09:19:39;;;;;;;34.57;23.43;;;11.90;93.70;;;;;;5053228;28;20408;-81
2021/04/30 09:22:09;;;;;;;33.07;22.70;;;11.90;93.80;;;;;;5052628;28;20424;-80
2021/04/30 09:24:36;;;;;;;32.33;22.87;;;11.90;93.80;;;;;;5052922;28;20476;-79
2021/04/30 09:27:03;;;;;;;34.50;23.77;;;12.00;93.90;;;;;;5052846;28;20781;-80
2021/04/30 09:29:32;;;;;;;33.60;22.80;;;12.00;94.40;;;;;;5052569;28;20410;-80
2021/04/30 09:31:59;;;;;;;35.70;23.00;;;12.00;94.50;;;;;;5053298;28;20457;-79
2021/04/30 09:34:35;;;;;;;33.97;22.57;;;12.10;94.10;;;;;;5052394;28;20797;-79
2021/04/30 09:37:12;;;;;;;33.73;23.07;;;12.10;94.00;;;;;;5052994;28;20400;-79
2021/04/30 09:39:59;;;;;;;32.33;22.43;;;12.10;93.90;;;;;;5052870;28;20816;-80
2021/04/30 09:42:33;;;;;;;27.20;21.20;;;12.10;93.80;;;;;;5051908;28;20496;-80
2021/04/30 09:45:08;;;;;;;31.20;23.60;;;12.10;94.20;;;;;;5034867;28;20406;-79
2021/04/30 09:47:38;;;;;;;32.30;22.37;;;12.20;93.60;;;;;;5049299;28;20431;-79
2021/04/30 09:50:06;;;;;;;30.40;21.83;;;12.20;93.50;;;;;;5052113;28;20506;-80
2021/04/30 09:52:31;;;;;;;31.37;22.67;;;12.10;93.40;;;;;;5051466;28;20496;-78
2021/04/30 09:55:03;;;;;;;32.73;22.57;;;12.10;93.40;;;;;;5052974;28;20787;-88
2021/04/30 09:57:31;;;;;;;29.13;23.20;;;12.00;93.40;;;;;;5051400;28;20419;-86
2021/04/30 10:00:10;;;;;;;31.10;22.93;;;12.10;93.40;;;;;;5034099;28;20507;-85
2021/04/30 10:02:36;;;;;;;33.60;23.83;;;12.10;93.40;;;;;;5032585;28;20472;-86
2021/04/30 10:05:09;;;;;;;32.97;24.00;;;12.10;93.30;;;;;;5052115;28;20401;-85
2021/04/30 10:07:38;;;;;;;32.77;23.87;;;12.00;93.30;;;;;;5050986;28;20433;-87
2021/04/30 10:10:07;;;;;;;30.00;20.83;;;12.10;93.60;;;;;;5052145;28;20921;-85
2021/04/30 10:12:35;;;;;;;34.10;23.17;;;12.10;93.50;;;;;;5051776;28;20404;-85
2021/04/30 10:15:01;;;;;;;29.87;23.00;;;12.10;93.40;;;;;;5052481;28;20422;-81
2021/04/30 10:17:26;;;;;;;29.73;23.10;;;12.10;93.30;;;;;;5050823;28;20411;-84
2021/04/30 10:19:53;;;;;;;28.20;22.13;;;12.10;93.40;;;;;;5052540;28;20972;-85
2021/04/30 10:22:27;;;;;;;31.97;24.40;;;12.10;93.60;;;;;;5052895;28;20535;-85
2021/04/30 10:24:59;;;;;;;26.13;21.27;;;12.20;93.60;;;;;;5052430;28;20481;-85
2021/04/30 10:27:36;;;;;;;31.00;22.40;;;12.20;93.40;;;;;;5051399;28;20411;-86
2021/04/30 10:30:11;;;;;;;26.07;21.27;;;12.30;93.20;;;;;;5052140;28;20406;-86
2021/04/30 10:33:01;;;;;;;30.00;22.47;;;12.30;93.10;;;;;;5051685;28;20394;-86
2021/04/30 10:35:40;;;;;;;29.40;21.43;;;12.30;93.20;;;;;;5006249;28;20941;-86
2021/04/30 10:38:12;;;;;;;33.03;22.50;;;12.40;92.90;;;;;;5052312;28;20414;-86
2021/04/30 10:40:53;;;;;;;31.67;23.20;;;12.40;92.90;;;;;;5052606;28;20407;-87
2021/04/30 10:43:21;;;;;;;35.57;24.60;;;12.40;92.60;;;;;;5051715;28;20461;-86
2021/04/30 10:46:19;;;;;;;29.53;22.80;;;12.20;91.90;;;;;;5052222;28;20419;-86
2021/04/30 10:49:08;;;;;;;31.60;22.40;;;12.10;92.90;;;;;;5032389;28;20506;-86
2021/04/30 10:51:35;;;;;;;30.77;21.80;;;12.20;93.10;;;;;;5051618;28;20457;-86
2021/04/30 10:54:24;;;;;;;28.50;21.43;;;12.20;93.00;;;;;;5052121;28;20542;-86
2021/04/30 10:57:02;;;;;;;31.57;22.30;;;12.30;92.90;;;;;;5052127;28;20416;-86
2021/04/30 10:59:54;;;;;;;29.50;21.40;;;12.30;92.50;;;;;;5051560;28;20500;-86
2021/04/30 11:02:33;;;;;;;31.43;24.77;;;12.30;92.40;;;;;;5051541;28;20397;-86
2021/04/30 11:05:12;;;;;;;33.87;23.83;;;12.30;92.40;;;;;;5052074;28;20461;-86
2021/04/30 11:07:46;;;;;;;31.97;23.27;;;12.40;92.60;;;;;;5051213;28;20956;-86
2021/04/30 11:10:21;;;;;;;30.80;24.13;;;12.30;92.60;;;;;;5051831;28;20898;-86
2021/04/30 11:12:57;;;;;;;34.80;24.43;;;12.40;92.90;;;;;;5051848;28;20459;-86
2021/04/30 11:15:24;;;;;;;35.53;25.60;;;12.30;92.90;;;;;;5050854;28;20423;-82
2021/04/30 11:18:04;;;;;;;36.17;27.20;;;12.40;92.80;;;;;;5054083;28;20917;-86
2021/04/30 11:20:35;;;;;;;35.57;25.33;;;12.30;92.90;;;;;;5054401;28;20415;-86
2021/04/30 11:23:23;;;;;;;36.97;26.77;;;12.30;92.70;;;;;;5037018;28;20423;-85
2021/04/30 11:26:05;;;;;;;37.47;25.30;;;12.40;92.60;;;;;;5057388;28;20423;-86
2021/04/30 11:28:31;;;;;;;34.20;24.60;;;12.40;92.80;;;;;;5054637;28;20472;-86
2021/04/30 11:31:07;;;;;;;32.97;24.70;;;12.40;92.80;;;;;;5055417;28;20425;-86
2021/04/30 11:33:36;;;;;;;39.67;25.90;;;12.50;92.70;;;;;;5037212;28;20218;-86
2021/04/30 11:36:04;;;;;;;40.13;27.67;;;12.50;92.70;;;;;;5055302;28;20412;-85
2021/04/30 11:38:46;;;;;;;38.20;26.50;;;12.50;92.50;;;;;;5054673;28;20419;-85
2021/04/30 11:41:14;;;;;;;40.70;26.93;;;12.50;92.60;;;;;;5055188;28;20959;-86
2021/04/30 11:43:41;;;;;;;43.10;27.63;;;12.50;92.50;;;;;;5054737;28;20903;-86
2021/04/30 11:46:08;;;;;;;38.13;27.33;;;12.60;92.50;;;;;;5054859;28;20444;-85
2021/04/30 11:48:34;;;;;;;36.83;27.90;;;12.60;93.10;;;;;;5054457;28;20462;-85
2021/04/30 11:51:05;;;;;;;41.30;28.17;;;12.70;92.80;;;;;;5054888;28;20416;-85
2021/04/30 11:53:36;;;;;;;41.10;29.20;;;12.40;92.00;;;;;;5053839;28;20490;-85
2021/04/30 11:56:04;;;;;;;37.10;25.77;;;12.30;92.50;;;;;;5037053;28;20401;-85
2021/04/30 11:58:37;;;;;;;43.90;28.67;;;12.40;93.10;;;;;;5053647;28;20828;-84
2021/04/30 12:01:04;;;;;;;43.80;27.57;;;12.50;92.80;;;;;;5036821;28;20900;-85
2021/04/30 12:03:43;;;;;;;40.80;25.47;;;12.60;93.10;;;;;;5054418;28;20932;-84
2021/04/30 12:06:14;;;;;;;36.43;25.37;;;12.60;92.80;;;;;;5054806;28;20439;-85
2021/04/30 12:08:41;;;;;;;42.20;26.30;;;12.70;93.00;;;;;;5054045;28;20415;-85
2021/04/30 12:11:07;;;;;;;36.87;25.77;;;12.80;92.80;;;;;;5037138;28;20812;-85
2021/04/30 12:13:39;;;;;;;36.37;26.30;;;12.80;93.10;;;;;;5054134;28;20504;-85
2021/04/30 12:16:18;;;;;;;37.60;27.00;;;12.90;92.40;;;;;;5054874;28;20813;-85
2021/04/30 12:18:44;;;;;;;34.80;25.23;;;12.90;92.10;;;;;;5054533;28;20426;-85
2021/04/30 12:21:10;;;;;;;31.50;23.67;;;12.90;92.30;;;;;;5054205;28;20919;-84
2021/04/30 12:23:37;;;;;;;37.77;27.47;;;13.00;91.90;;;;;;5053368;28;20460;-84
2021/04/30 12:26:03;;;;;;;34.87;24.60;;;13.00;92.50;;;;;;5054491;28;20178;-84
2021/04/30 12:28:33;;;;;;;31.70;23.63;;;13.10;92.70;;;;;;5052614;28;20480;-85
2021/04/30 12:31:06;;;;;;;36.60;24.30;;;13.10;91.90;;;;;;5054881;28;20964;-85